Reno - Stead, NV

9:05 PM PDT on March 29, 2017 (GMT -0700)
Reno - Stead

Weather History for KRTS - March, 2013

Change the Weather History Date:

Thursday, March 21, 2013

  Actual Average (KRNO) Record (KRNO)
Temperature  
Mean Temperature 42 °F -  
Max Temperature 53 °F 59 °F 80 °F (2004)
Min Temperature 30 °F 30 °F 1 °F (1952)
Degree Days  
Heating Degree Days 24    
Moisture  
Dew Point 21 °F    
Average Humidity 48    
Maximum Humidity 87    
Minimum Humidity 24    
Precipitation  
Precipitation 0.00 in - - ()
Sea Level Pressure  
Sea Level Pressure 30.05 in    
Wind  
Wind Speed 11 mph (North)    
Max Wind Speed 22 mph    
Max Gust Speed 33 mph    
Visibility 10 miles    
Events      
Averages and records for this station are not official NWS values.
T = Trace of Precipitation, MM = Missing Value Source: NWS Daily Summary

Daily Weather History Graph

Daily Weather History Graph

Search for Another Location

Airport or City:

Trip Planner

Search our weather history database for the weather conditions in past years. The results will help you decide how hot, cold, wet, or windy it might be!

Date:

Astronomy

Mar. 21, 2013 Rise Set
Actual Time 7:00 AM PDT 7:12 PM PDT
Civil Twilight 6:33 AM PDT 7:39 PM PDT
Nautical Twilight 6:02 AM PDT 8:11 PM PDT
Astronomical Twilight 5:30 AM PDT 8:43 PM PDT
Moon 1:48 PM PDT (3/21) 3:25 AM PDT (3/21)
Length of Visible Light 13h 05m
Length of Day
12h 12m
Waxing Gibbous, 69% of the Moon is Illuminated
Mar 21
Waxing Gibbous
Mar 27
Full
Apr 2
Last Quarter
Apr 10
New
Apr 18
First Quarter

Hourly Weather History & Observations

Time (PDT) Temp. Windchill Dew Point Humidity Pressure Visibility Wind Dir Wind Speed Gust Speed Precip Events Conditions
12:15 AM 41.0 °F 33.5 °F 26.6 °F 57% 30.00 in 10.0 mi West 13.8 mph - N/A   Clear
12:35 AM 41.0 °F 32.8 °F 26.6 °F 57% 30.00 in 10.0 mi West 16.1 mph 24.2 mph N/A   Clear
1:15 AM 41.0 °F 33.5 °F 28.4 °F 61% 30.02 in 10.0 mi WNW 13.8 mph 21.9 mph N/A   Clear
1:35 AM 39.2 °F 31.2 °F 28.4 °F 65% 30.02 in 10.0 mi WNW 13.8 mph 21.9 mph N/A   Clear
1:55 AM 39.2 °F 32.5 °F 28.4 °F 65% 30.03 in 10.0 mi WNW 10.4 mph - N/A   Clear
2:15 AM 37.4 °F 32.8 °F 28.4 °F 70% 30.04 in 10.0 mi NW 5.8 mph - N/A   Clear
2:35 AM 35.6 °F 30.7 °F 28.4 °F 75% 30.04 in 10.0 mi West 5.8 mph - N/A   Clear
2:55 AM 35.6 °F 30.7 °F 28.4 °F 75% 30.04 in 10.0 mi ENE 5.8 mph - N/A   Clear
3:15 AM 37.4 °F 31.4 °F 28.4 °F 70% 30.04 in 10.0 mi NE 8.1 mph 16.1 mph N/A   Mostly Cloudy
3:55 AM 35.6 °F 28.6 °F 26.6 °F 70% 30.05 in 10.0 mi North 9.2 mph - N/A   Clear
4:15 AM 35.6 °F 28.0 °F 26.6 °F 70% 30.05 in 10.0 mi North 10.4 mph - N/A   Clear
4:35 AM 37.4 °F 30.8 °F 28.4 °F 70% 30.06 in 10.0 mi NNW 9.2 mph - N/A   Clear
4:55 AM 35.6 °F 27.1 °F 26.6 °F 70% 30.05 in 10.0 mi NW 12.7 mph - N/A   Clear
5:15 AM 35.6 °F 27.5 °F 26.6 °F 70% 30.05 in 10.0 mi NW 11.5 mph - N/A   Clear
5:35 AM 35.6 °F 27.5 °F 26.6 °F 70% 30.07 in 10.0 mi NW 11.5 mph - N/A   Clear
5:55 AM 35.6 °F 28.6 °F 26.6 °F 70% 30.07 in 10.0 mi WNW 9.2 mph - N/A   Clear
6:15 AM 32.0 °F 25.6 °F 26.6 °F 80% 30.08 in 10.0 mi SE 6.9 mph - N/A   Clear
6:35 AM 33.8 °F 29.6 °F 26.6 °F 75% 30.08 in 10.0 mi North 4.6 mph - N/A   Clear
6:55 AM 32.0 °F 24.2 °F 26.6 °F 80% 30.09 in 10.0 mi North 9.2 mph - N/A   Clear
7:15 AM 30.2 °F 23.4 °F 26.6 °F 86% 30.08 in 10.0 mi North 6.9 mph - N/A   Clear
7:35 AM 30.2 °F 21.9 °F 26.6 °F 86% 30.08 in 10.0 mi North 9.2 mph - N/A   Clear
7:55 AM 32.0 °F 24.8 °F 28.4 °F 87% 30.08 in 10.0 mi North 8.1 mph - N/A   Clear
8:15 AM 33.8 °F 26.4 °F 28.4 °F 81% 30.09 in 10.0 mi North 9.2 mph - N/A   Clear
8:35 AM 37.4 °F 30.8 °F 28.4 °F 70% 30.09 in 10.0 mi North 9.2 mph - N/A   Clear
8:55 AM 37.4 °F 31.4 °F 28.4 °F 70% 30.09 in 10.0 mi North 8.1 mph - N/A   Clear
9:15 AM 39.2 °F 34.2 °F 28.4 °F 65% 30.09 in 10.0 mi North 6.9 mph - N/A   Clear
9:35 AM 39.2 °F 35.9 °F 26.6 °F 61% 30.10 in 10.0 mi NE 4.6 mph - N/A   Clear
9:55 AM 41.0 °F 39.0 °F 26.6 °F 57% 30.09 in 10.0 mi ENE 3.5 mph - N/A   Clear
10:15 AM 41.0 °F - 26.6 °F 57% 30.09 in 10.0 mi Calm Calm - N/A   Clear
10:35 AM 42.8 °F 39.3 °F 26.6 °F 53% 30.09 in 10.0 mi ESE 5.8 mph - N/A   Clear
10:55 AM 44.6 °F 40.7 °F 26.6 °F 49% 30.08 in 10.0 mi SE 6.9 mph - N/A   Clear
11:15 AM 44.6 °F 39.7 °F 26.6 °F 49% 30.08 in 10.0 mi ESE 9.2 mph - N/A   Clear
11:35 AM 44.6 °F 40.2 °F 26.6 °F 49% 30.08 in 10.0 mi East 8.1 mph - N/A   Clear
11:55 AM 46.4 °F 44.3 °F 24.8 °F 43% 30.07 in 10.0 mi South 4.6 mph - N/A   Clear
12:15 PM 44.6 °F 42.2 °F 24.8 °F 46% 30.07 in 10.0 mi East 4.6 mph - N/A   Clear
12:35 PM 46.4 °F 45.2 °F 24.8 °F 43% 30.07 in 10.0 mi South 3.5 mph - N/A   Clear
12:55 PM 48.2 °F - 24.8 °F 40% 30.06 in 10.0 mi NE 5.8 mph - N/A   Clear
1:15 PM 48.2 °F - 23.0 °F 37% 30.05 in 10.0 mi North 6.9 mph - N/A   Clear
1:35 PM 48.2 °F - 23.0 °F 37% 30.04 in 10.0 mi ENE 5.8 mph - N/A   Clear
1:55 PM 50.0 °F - 23.0 °F 35% 30.04 in 10.0 mi NW 8.1 mph - N/A   Clear
2:15 PM 50.0 °F - 23.0 °F 35% 30.03 in 10.0 mi North 10.4 mph - N/A   Clear
2:35 PM 51.8 °F - 23.0 °F 33% 30.02 in 10.0 mi NE 5.8 mph - N/A   Clear
2:55 PM 51.8 °F - 23.0 °F 33% 30.01 in 10.0 mi North 8.1 mph - N/A   Clear
3:15 PM 51.8 °F - 19.4 °F 28% 30.01 in 10.0 mi NNE 12.7 mph 16.1 mph N/A   Clear
3:35 PM 51.8 °F - 17.6 °F 26% 30.01 in 10.0 mi North 12.7 mph 16.1 mph N/A   Clear
3:55 PM 51.8 °F - 19.4 °F 28% 30.00 in 10.0 mi North 15.0 mph 20.7 mph N/A   Clear
4:15 PM 53.6 °F - 19.4 °F 26% 30.00 in 10.0 mi North 17.3 mph 23.0 mph N/A   Clear
4:35 PM 51.8 °F - 19.4 °F 28% 30.00 in 10.0 mi North 13.8 mph 20.7 mph N/A   Clear
4:55 PM 51.8 °F - 17.6 °F 26% 30.00 in 10.0 mi North 15.0 mph - N/A   Clear
5:15 PM 51.8 °F - 17.6 °F 26% 30.00 in 10.0 mi North 18.4 mph 25.3 mph N/A   Clear
5:35 PM 50.0 °F - 14.0 °F 24% 30.00 in 10.0 mi North 19.6 mph - N/A   Clear
5:55 PM 50.0 °F - 14.0 °F 24% 30.00 in 10.0 mi North 18.4 mph - N/A   Clear
6:15 PM 48.2 °F - 14.0 °F 25% 30.00 in 10.0 mi North 20.7 mph - N/A   Clear
6:35 PM 48.2 °F - 12.2 °F 24% 30.01 in 10.0 mi North 20.7 mph - N/A   Clear
6:55 PM 46.4 °F 38.7 °F 12.2 °F 25% 30.01 in 10.0 mi North 20.7 mph - N/A   Clear
7:15 PM 44.6 °F 37.4 °F 10.4 °F 25% 30.02 in 10.0 mi North 16.1 mph - N/A   Clear
7:35 PM 42.8 °F 35.1 °F 10.4 °F 27% 30.03 in 10.0 mi North 16.1 mph - N/A   Clear
7:55 PM 41.0 °F 33.1 °F 10.4 °F 29% 30.03 in 10.0 mi North 15.0 mph - N/A   Clear
8:15 PM 41.0 °F 32.5 °F 10.4 °F 29% 30.04 in 10.0 mi North 17.3 mph 24.2 mph N/A   Clear
8:35 PM 39.2 °F 33.6 °F 5.0 °F 24% 30.04 in 10.0 mi NNW 8.1 mph 18.4 mph N/A   Clear
8:55 PM 39.2 °F 31.2 °F 5.0 °F 24% 30.05 in 10.0 mi North 13.8 mph - N/A   Clear
9:15 PM 39.2 °F 30.5 °F 6.8 °F 26% 30.05 in 10.0 mi North 16.1 mph 24.2 mph N/A   Clear
9:35 PM 37.4 °F 27.2 °F 8.6 °F 30% 30.06 in 10.0 mi NNW 19.6 mph - N/A   Clear
9:55 PM 37.4 °F 27.5 °F 6.8 °F 28% 30.08 in 10.0 mi NNW 18.4 mph 33.4 mph N/A   Clear
10:15 PM 37.4 °F 26.6 °F 6.8 °F 28% 30.09 in 10.0 mi North 21.9 mph 28.8 mph N/A   Clear
10:35 PM 35.6 °F 26.6 °F 8.6 °F 33% 30.09 in 10.0 mi North 13.8 mph 20.7 mph N/A   Clear
10:55 PM 35.6 °F 25.5 °F 6.8 °F 30% 30.09 in 10.0 mi North 17.3 mph - N/A   Clear
11:15 PM 35.6 °F 25.5 °F 8.6 °F 33% 30.10 in 10.0 mi NNW 17.3 mph 24.2 mph N/A   Clear
11:35 PM 33.8 °F 23.2 °F 8.6 °F 35% 30.10 in 10.0 mi NNW 17.3 mph 23.0 mph N/A   Clear
11:55 PM 33.8 °F 23.5 °F 8.6 °F 35% 30.10 in 10.0 mi NW 16.1 mph 28.8 mph N/A   Clear